sensor_id;sensor_type;location;lat;lon;timestamp;pressure;altitude;pressure_sealevel;temperature;humidity
26531;BME280;14201;43.188;24.160;2023-05-12T00:00:56;99879.66;;;15.89;59.86
26531;BME280;14201;43.188;24.160;2023-05-12T00:03:22;99879.66;;;15.88;60.29
26531;BME280;14201;43.188;24.160;2023-05-12T00:05:48;99884.72;;;15.82;60.25
26531;BME280;14201;43.188;24.160;2023-05-12T00:08:13;99885.44;;;15.74;60.03
26531;BME280;14201;43.188;24.160;2023-05-12T00:10:39;99886.19;;;15.70;59.70
26531;BME280;14201;43.188;24.160;2023-05-12T00:13:05;99878.31;;;15.72;59.70
26531;BME280;14201;43.188;24.160;2023-05-12T00:15:30;99877.38;;;15.68;59.99
26531;BME280;14201;43.188;24.160;2023-05-12T00:17:55;99878.22;;;15.67;59.83
26531;BME280;14201;43.188;24.160;2023-05-12T00:20:21;99879.81;;;15.62;59.89
26531;BME280;14201;43.188;24.160;2023-05-12T00:22:46;99880.00;;;15.68;60.43
26531;BME280;14201;43.188;24.160;2023-05-12T00:25:12;99876.47;;;15.68;60.15
26531;BME280;14201;43.188;24.160;2023-05-12T00:27:37;99882.63;;;15.68;59.85
26531;BME280;14201;43.188;24.160;2023-05-12T00:30:03;99888.72;;;15.67;59.34
26531;BME280;14201;43.188;24.160;2023-05-12T00:32:28;99886.00;;;15.64;59.17
26531;BME280;14201;43.188;24.160;2023-05-12T00:34:53;99884.97;;;15.58;59.50
26531;BME280;14201;43.188;24.160;2023-05-12T00:37:19;99886.88;;;15.63;58.86
26531;BME280;14201;43.188;24.160;2023-05-12T00:39:44;99892.00;;;15.59;58.97
26531;BME280;14201;43.188;24.160;2023-05-12T00:42:10;99890.09;;;15.53;57.94
26531;BME280;14201;43.188;24.160;2023-05-12T00:44:36;99885.63;;;15.50;58.04
26531;BME280;14201;43.188;24.160;2023-05-12T00:47:02;99886.50;;;15.49;58.21
26531;BME280;14201;43.188;24.160;2023-05-12T00:49:28;99892.47;;;15.44;58.70
26531;BME280;14201;43.188;24.160;2023-05-12T00:51:54;99890.69;;;15.43;58.66
26531;BME280;14201;43.188;24.160;2023-05-12T00:54:20;99897.88;;;15.50;59.37
26531;BME280;14201;43.188;24.160;2023-05-12T00:56:45;99896.09;;;15.49;59.25
26531;BME280;14201;43.188;24.160;2023-05-12T00:59:11;99902.31;;;15.52;58.50
26531;BME280;14201;43.188;24.160;2023-05-12T01:01:37;99905.81;;;15.51;57.66
26531;BME280;14201;43.188;24.160;2023-05-12T01:04:02;99898.56;;;15.41;57.96
26531;BME280;14201;43.188;24.160;2023-05-12T01:06:37;99891.41;;;15.35;58.02
26531;BME280;14201;43.188;24.160;2023-05-12T01:09:07;99893.09;;;15.33;58.18
26531;BME280;14201;43.188;24.160;2023-05-12T01:11:33;99896.44;;;15.29;58.12
26531;BME280;14201;43.188;24.160;2023-05-12T01:13:58;99899.91;;;15.27;58.97
26531;BME280;14201;43.188;24.160;2023-05-12T01:16:25;99899.81;;;15.24;58.95
26531;BME280;14201;43.188;24.160;2023-05-12T01:18:53;99898.09;;;15.24;58.97
26531;BME280;14201;43.188;24.160;2023-05-12T01:21:20;99903.19;;;15.20;59.40
26531;BME280;14201;43.188;24.160;2023-05-12T01:23:47;99899.56;;;15.14;61.12
26531;BME280;14201;43.188;24.160;2023-05-12T01:26:15;99902.03;;;15.10;61.50
26531;BME280;14201;43.188;24.160;2023-05-12T01:28:41;99900.28;;;15.09;62.41
26531;BME280;14201;43.188;24.160;2023-05-12T01:31:06;99898.47;;;15.08;63.41
26531;BME280;14201;43.188;24.160;2023-05-12T01:33:33;99902.03;;;15.10;63.68
26531;BME280;14201;43.188;24.160;2023-05-12T01:35:58;99912.63;;;15.13;63.92
26531;BME280;14201;43.188;24.160;2023-05-12T01:38:24;99908.22;;;15.12;63.64
26531;BME280;14201;43.188;24.160;2023-05-12T01:40:49;99901.88;;;15.04;64.26
26531;BME280;14201;43.188;24.160;2023-05-12T01:43:14;99906.94;;;14.98;63.57
26531;BME280;14201;43.188;24.160;2023-05-12T01:45:40;99905.16;;;14.96;63.84
26531;BME280;14201;43.188;24.160;2023-05-12T01:48:05;99915.56;;;14.93;63.81
26531;BME280;14201;43.188;24.160;2023-05-12T01:50:31;99915.47;;;14.90;63.84
26531;BME280;14201;43.188;24.160;2023-05-12T01:52:56;99920.66;;;14.87;63.11
26531;BME280;14201;43.188;24.160;2023-05-12T01:55:22;99911.84;;;14.85;63.20
26531;BME280;14201;43.188;24.160;2023-05-12T01:57:47;99915.94;;;14.77;63.79
26531;BME280;14201;43.188;24.160;2023-05-12T02:00:12;99919.50;;;14.79;64.23
26531;BME280;14201;43.188;24.160;2023-05-12T02:02:38;99911.69;;;14.81;64.91
26531;BME280;14201;43.188;24.160;2023-05-12T02:05:03;99913.53;;;14.83;65.93
26531;BME280;14201;43.188;24.160;2023-05-12T02:07:29;99908.81;;;14.71;66.17
26531;BME280;14201;43.188;24.160;2023-05-12T02:09:54;99920.25;;;14.75;66.42
26531;BME280;14201;43.188;24.160;2023-05-12T02:12:19;99914.91;;;14.70;66.85
26531;BME280;14201;43.188;24.160;2023-05-12T02:14:45;99920.88;;;14.66;66.97
26531;BME280;14201;43.188;24.160;2023-05-12T02:17:10;99921.59;;;14.61;67.53
26531;BME280;14201;43.188;24.160;2023-05-12T02:19:36;99915.59;;;14.65;67.50
26531;BME280;14201;43.188;24.160;2023-05-12T02:22:01;99918.22;;;14.65;67.42
26531;BME280;14201;43.188;24.160;2023-05-12T02:24:27;99918.31;;;14.68;68.08
26531;BME280;14201;43.188;24.160;2023-05-12T02:26:52;99919.09;;;14.65;67.54
26531;BME280;14201;43.188;24.160;2023-05-12T02:29:18;99925.03;;;14.60;67.84
26531;BME280;14201;43.188;24.160;2023-05-12T02:31:43;99929.13;;;14.51;68.18
26531;BME280;14201;43.188;24.160;2023-05-12T02:34:08;99922.94;;;14.49;67.62
26531;BME280;14201;43.188;24.160;2023-05-12T02:36:34;99928.84;;;14.42;69.27
26531;BME280;14201;43.188;24.160;2023-05-12T02:38:59;99926.03;;;14.36;69.15
26531;BME280;14201;43.188;24.160;2023-05-12T02:41:25;99923.84;;;14.23;68.85
26531;BME280;14201;43.188;24.160;2023-05-12T02:43:50;99926.34;;;14.18;68.82
26531;BME280;14201;43.188;24.160;2023-05-12T02:46:16;99929.75;;;14.15;68.51
26531;BME280;14201;43.188;24.160;2023-05-12T02:48:41;99939.06;;;14.07;69.15
26531;BME280;14201;43.188;24.160;2023-05-12T02:51:06;99935.50;;;14.05;70.47
26531;BME280;14201;43.188;24.160;2023-05-12T02:53:32;99937.13;;;14.00;70.36
26531;BME280;14201;43.188;24.160;2023-05-12T02:55:57;99937.88;;;13.97;70.06
26531;BME280;14201;43.188;24.160;2023-05-12T02:58:23;99937.63;;;13.90;70.09
26531;BME280;14201;43.188;24.160;2023-05-12T03:00:48;99937.59;;;13.88;70.72
26531;BME280;14201;43.188;24.160;2023-05-12T03:03:14;99940.16;;;13.87;71.75
26531;BME280;14201;43.188;24.160;2023-05-12T03:05:39;99937.47;;;13.85;71.27
26531;BME280;14201;43.188;24.160;2023-05-12T03:08:05;99948.94;;;13.89;71.26
26531;BME280;14201;43.188;24.160;2023-05-12T03:10:30;99946.22;;;13.86;71.27
26531;BME280;14201;43.188;24.160;2023-05-12T03:12:56;99946.06;;;13.81;70.86
26531;BME280;14201;43.188;24.160;2023-05-12T03:15:21;99952.94;;;13.77;71.81
26531;BME280;14201;43.188;24.160;2023-05-12T03:17:46;99965.41;;;13.85;71.48
26531;BME280;14201;43.188;24.160;2023-05-12T03:20:12;99963.53;;;13.82;73.09
26531;BME280;14201;43.188;24.160;2023-05-12T03:22:37;99965.81;;;13.71;72.58
26531;BME280;14201;43.188;24.160;2023-05-12T03:25:03;99966.63;;;13.70;72.48
26531;BME280;14201;43.188;24.160;2023-05-12T03:27:32;99973.44;;;13.65;73.38
26531;BME280;14201;43.188;24.160;2023-05-12T03:29:57;99970.56;;;13.57;73.23
26531;BME280;14201;43.188;24.160;2023-05-12T03:32:25;99973.06;;;13.54;74.28
26531;BME280;14201;43.188;24.160;2023-05-12T03:34:50;99974.94;;;13.58;75.12
26531;BME280;14201;43.188;24.160;2023-05-12T03:37:15;99982.91;;;13.62;74.74
26531;BME280;14201;43.188;24.160;2023-05-12T03:39:41;99990.56;;;13.55;75.22
26531;BME280;14201;43.188;24.160;2023-05-12T03:42:06;99989.03;;;13.62;74.71
26531;BME280;14201;43.188;24.160;2023-05-12T03:44:32;99985.34;;;13.57;74.02
26531;BME280;14201;43.188;24.160;2023-05-12T03:46:57;99984.66;;;13.61;74.79
26531;BME280;14201;43.188;24.160;2023-05-12T03:49:23;99992.53;;;13.63;75.35
26531;BME280;14201;43.188;24.160;2023-05-12T03:51:48;99999.22;;;13.54;75.45
26531;BME280;14201;43.188;24.160;2023-05-12T03:54:13;99997.56;;;13.56;76.02
26531;BME280;14201;43.188;24.160;2023-05-12T03:56:39;99997.06;;;13.67;76.05
26531;BME280;14201;43.188;24.160;2023-05-12T03:59:04;100000.78;;;13.73;75.27
26531;BME280;14201;43.188;24.160;2023-05-12T04:01:30;100005.28;;;13.77;74.91
26531;BME280;14201;43.188;24.160;2023-05-12T04:03:56;100001.00;;;13.79;75.16
26531;BME280;14201;43.188;24.160;2023-05-12T04:06:21;100004.69;;;13.85;75.28
26531;BME280;14201;43.188;24.160;2023-05-12T04:08:46;100010.66;;;13.82;75.40
26531;BME280;14201;43.188;24.160;2023-05-12T04:11:12;100009.06;;;13.86;75.67
26531;BME280;14201;43.188;24.160;2023-05-12T04:13:38;100012.69;;;13.89;75.57
26531;BME280;14201;43.188;24.160;2023-05-12T04:16:03;100017.19;;;13.93;75.04
26531;BME280;14201;43.188;24.160;2023-05-12T04:18:29;100019.91;;;13.96;75.69
26531;BME280;14201;43.188;24.160;2023-05-12T04:20:55;100026.91;;;13.96;74.87
26531;BME280;14201;43.188;24.160;2023-05-12T04:23:20;100015.56;;;13.97;74.70
26531;BME280;14201;43.188;24.160;2023-05-12T04:25:46;100016.31;;;13.93;74.05
26531;BME280;14201;43.188;24.160;2023-05-12T04:28:11;100018.13;;;13.95;73.37
26531;BME280;14201;43.188;24.160;2023-05-12T04:30:40;100022.94;;;13.83;73.99
26531;BME280;14201;43.188;24.160;2023-05-12T04:33:06;100013.28;;;13.82;74.34
26531;BME280;14201;43.188;24.160;2023-05-12T04:35:31;100017.72;;;13.83;74.42
26531;BME280;14201;43.188;24.160;2023-05-12T04:37:57;100022.06;;;13.83;76.79
26531;BME280;14201;43.188;24.160;2023-05-12T04:40:22;100024.69;;;13.83;76.69
26531;BME280;14201;43.188;24.160;2023-05-12T04:42:48;100018.38;;;13.77;77.27
26531;BME280;14201;43.188;24.160;2023-05-12T04:45:13;100020.25;;;13.82;77.70
26531;BME280;14201;43.188;24.160;2023-05-12T04:47:39;100021.06;;;13.79;78.44
26531;BME280;14201;43.188;24.160;2023-05-12T04:50:04;100022.78;;;13.78;78.33
26531;BME280;14201;43.188;24.160;2023-05-12T04:52:30;100028.91;;;13.79;78.96
26531;BME280;14201;43.188;24.160;2023-05-12T04:54:56;100026.44;;;13.84;78.00
26531;BME280;14201;43.188;24.160;2023-05-12T04:57:21;100030.00;;;13.86;78.53
26531;BME280;14201;43.188;24.160;2023-05-12T04:59:47;100031.94;;;13.91;78.79
26531;BME280;14201;43.188;24.160;2023-05-12T05:02:12;100030.19;;;13.90;78.10
26531;BME280;14201;43.188;24.160;2023-05-12T05:04:38;100036.44;;;13.94;76.76
26531;BME280;14201;43.188;24.160;2023-05-12T05:07:03;100031.41;;;14.00;75.27
26531;BME280;14201;43.188;24.160;2023-05-12T05:09:29;100028.66;;;13.97;75.86
26531;BME280;14201;43.188;24.160;2023-05-12T05:11:54;100039.47;;;14.06;76.20
26531;BME280;14201;43.188;24.160;2023-05-12T05:14:20;100046.72;;;14.15;76.21
26531;BME280;14201;43.188;24.160;2023-05-12T05:16:47;100049.53;;;14.20;75.66
26531;BME280;14201;43.188;24.160;2023-05-12T05:19:12;100050.34;;;14.18;75.95
26531;BME280;14201;43.188;24.160;2023-05-12T05:21:38;100055.59;;;14.18;73.42
26531;BME280;14201;43.188;24.160;2023-05-12T05:24:03;100049.31;;;14.13;74.39
26531;BME280;14201;43.188;24.160;2023-05-12T05:26:29;100055.59;;;14.18;74.34
26531;BME280;14201;43.188;24.160;2023-05-12T05:28:55;100056.53;;;14.21;72.83
26531;BME280;14201;43.188;24.160;2023-05-12T05:31:20;100059.00;;;14.16;72.18
26531;BME280;14201;43.188;24.160;2023-05-12T05:33:46;100061.41;;;14.10;71.76
26531;BME280;14201;43.188;24.160;2023-05-12T05:36:11;100060.09;;;13.97;72.61
26531;BME280;14201;43.188;24.160;2023-05-12T05:38:37;100060.53;;;13.85;73.11
26531;BME280;14201;43.188;24.160;2023-05-12T05:41:02;100057.03;;;13.85;73.54
26531;BME280;14201;43.188;24.160;2023-05-12T05:43:28;100056.25;;;13.87;72.49
26531;BME280;14201;43.188;24.160;2023-05-12T05:45:54;100058.50;;;13.76;73.44
26531;BME280;14201;43.188;24.160;2023-05-12T05:48:21;100058.78;;;13.84;72.68
26531;BME280;14201;43.188;24.160;2023-05-12T05:50:47;100058.50;;;13.76;74.13
26531;BME280;14201;43.188;24.160;2023-05-12T05:53:13;100054.91;;;13.74;76.99
26531;BME280;14201;43.188;24.160;2023-05-12T05:55:38;100062.22;;;13.83;74.95
26531;BME280;14201;43.188;24.160;2023-05-12T05:58:04;100065.50;;;13.77;75.91
26531;BME280;14201;43.188;24.160;2023-05-12T06:00:29;100062.53;;;13.68;75.95
26531;BME280;14201;43.188;24.160;2023-05-12T06:02:55;100067.06;;;13.72;78.67
26531;BME280;14201;43.188;24.160;2023-05-12T06:05:20;100075.03;;;13.75;77.46
26531;BME280;14201;43.188;24.160;2023-05-12T06:07:46;100073.56;;;13.84;76.39
26531;BME280;14201;43.188;24.160;2023-05-12T06:10:11;100081.50;;;13.61;76.80
26531;BME280;14201;43.188;24.160;2023-05-12T06:12:36;100079.94;;;13.66;77.34
26531;BME280;14201;43.188;24.160;2023-05-12T06:15:02;100082.97;;;13.54;78.61
26531;BME280;14201;43.188;24.160;2023-05-12T06:17:27;100075.34;;;13.36;78.58
26531;BME280;14201;43.188;24.160;2023-05-12T06:19:53;100080.84;;;13.44;80.80
26531;BME280;14201;43.188;24.160;2023-05-12T06:22:18;100085.94;;;13.64;83.57
26531;BME280;14201;43.188;24.160;2023-05-12T06:24:44;100082.16;;;13.79;82.86
26531;BME280;14201;43.188;24.160;2023-05-12T06:27:09;100080.22;;;13.98;81.41
26531;BME280;14201;43.188;24.160;2023-05-12T06:29:34;100083.25;;;14.10;81.46
26531;BME280;14201;43.188;24.160;2023-05-12T06:32:00;100087.22;;;14.23;79.10
26531;BME280;14201;43.188;24.160;2023-05-12T06:34:25;100096.31;;;14.34;78.97
26531;BME280;14201;43.188;24.160;2023-05-12T06:36:51;100096.63;;;14.44;78.85
26531;BME280;14201;43.188;24.160;2023-05-12T06:39:18;100094.63;;;14.61;78.62
26531;BME280;14201;43.188;24.160;2023-05-12T06:41:43;100098.56;;;14.73;78.72
26531;BME280;14201;43.188;24.160;2023-05-12T06:44:09;100098.13;;;14.88;73.89
26531;BME280;14201;43.188;24.160;2023-05-12T06:46:39;100100.19;;;14.97;76.37
26531;BME280;14201;43.188;24.160;2023-05-12T06:49:05;100096.13;;;15.07;77.22
26531;BME280;14201;43.188;24.160;2023-05-12T06:51:30;100098.97;;;15.14;76.99
26531;BME280;14201;43.188;24.160;2023-05-12T06:53:56;100099.50;;;15.04;75.70
26531;BME280;14201;43.188;24.160;2023-05-12T06:56:21;100096.50;;;15.19;77.22
26531;BME280;14201;43.188;24.160;2023-05-12T06:58:47;100094.97;;;15.27;75.47
26531;BME280;14201;43.188;24.160;2023-05-12T07:01:13;100100.81;;;15.46;71.24
26531;BME280;14201;43.188;24.160;2023-05-12T07:03:38;100098.22;;;15.47;70.99
26531;BME280;14201;43.188;24.160;2023-05-12T07:06:04;100095.50;;;15.44;71.26
26531;BME280;14201;43.188;24.160;2023-05-12T07:08:30;100099.72;;;15.39;71.86
26531;BME280;14201;43.188;24.160;2023-05-12T07:10:58;100101.91;;;15.25;73.12
26531;BME280;14201;43.188;24.160;2023-05-12T07:13:23;100102.25;;;15.36;73.98
26531;BME280;14201;43.188;24.160;2023-05-12T07:15:49;100106.88;;;15.45;74.50
26531;BME280;14201;43.188;24.160;2023-05-12T07:18:14;100116.84;;;15.56;74.32
26531;BME280;14201;43.188;24.160;2023-05-12T07:20:39;100104.81;;;15.63;75.42
26531;BME280;14201;43.188;24.160;2023-05-12T07:23:05;100111.19;;;15.71;73.61
26531;BME280;14201;43.188;24.160;2023-05-12T07:25:30;100114.06;;;15.79;71.50
26531;BME280;14201;43.188;24.160;2023-05-12T07:27:56;100106.00;;;15.73;71.08
26531;BME280;14201;43.188;24.160;2023-05-12T07:30:21;100103.38;;;15.73;72.71
26531;BME280;14201;43.188;24.160;2023-05-12T07:32:46;100113.94;;;15.74;71.09
26531;BME280;14201;43.188;24.160;2023-05-12T07:35:12;100111.59;;;15.85;71.46
26531;BME280;14201;43.188;24.160;2023-05-12T07:37:37;100112.28;;;15.49;70.93
26531;BME280;14201;43.188;24.160;2023-05-12T07:40:03;100114.41;;;15.32;72.60
26531;BME280;14201;43.188;24.160;2023-05-12T07:42:29;100116.38;;;15.40;73.00
26531;BME280;14201;43.188;24.160;2023-05-12T07:44:55;100116.78;;;15.53;72.53
26531;BME280;14201;43.188;24.160;2023-05-12T07:47:20;100115.31;;;15.63;71.72
26531;BME280;14201;43.188;24.160;2023-05-12T07:49:46;100116.19;;;15.64;73.29
26531;BME280;14201;43.188;24.160;2023-05-12T07:52:11;100108.47;;;15.68;73.38
26531;BME280;14201;43.188;24.160;2023-05-12T07:54:37;100118.47;;;15.80;71.42
26531;BME280;14201;43.188;24.160;2023-05-12T07:57:02;100116.78;;;15.82;69.69
26531;BME280;14201;43.188;24.160;2023-05-12T07:59:28;100117.44;;;15.75;71.33
26531;BME280;14201;43.188;24.160;2023-05-12T08:01:53;100114.91;;;15.78;72.98
26531;BME280;14201;43.188;24.160;2023-05-12T08:04:19;100116.03;;;15.86;71.71
26531;BME280;14201;43.188;24.160;2023-05-12T08:06:44;100116.25;;;15.94;72.61
26531;BME280;14201;43.188;24.160;2023-05-12T08:09:09;100118.38;;;16.07;70.67
26531;BME280;14201;43.188;24.160;2023-05-12T08:11:35;100117.22;;;15.98;69.63
26531;BME280;14201;43.188;24.160;2023-05-12T08:14:00;100115.53;;;16.01;71.57
26531;BME280;14201;43.188;24.160;2023-05-12T08:16:26;100121.88;;;16.08;71.64
26531;BME280;14201;43.188;24.160;2023-05-12T08:18:51;100115.09;;;16.16;69.04
26531;BME280;14201;43.188;24.160;2023-05-12T08:21:16;100122.69;;;16.05;69.90
26531;BME280;14201;43.188;24.160;2023-05-12T08:23:42;100114.88;;;16.08;70.61
26531;BME280;14201;43.188;24.160;2023-05-12T08:26:08;100118.00;;;15.95;68.66
26531;BME280;14201;43.188;24.160;2023-05-12T08:28:34;100120.94;;;16.06;70.42
26531;BME280;14201;43.188;24.160;2023-05-12T08:30:59;100129.22;;;16.20;70.69
26531;BME280;14201;43.188;24.160;2023-05-12T08:33:25;100126.84;;;16.29;69.73
26531;BME280;14201;43.188;24.160;2023-05-12T08:35:51;100119.00;;;16.32;68.56
26531;BME280;14201;43.188;24.160;2023-05-12T08:38:17;100128.03;;;16.40;67.26
26531;BME280;14201;43.188;24.160;2023-05-12T08:40:46;100137.56;;;16.37;67.41
26531;BME280;14201;43.188;24.160;2023-05-12T08:45:40;100127.25;;;16.44;70.21
26531;BME280;14201;43.188;24.160;2023-05-12T08:48:07;100129.16;;;16.50;68.65
26531;BME280;14201;43.188;24.160;2023-05-12T08:50:34;100120.53;;;16.56;69.49
26531;BME280;14201;43.188;24.160;2023-05-12T08:53:00;100125.03;;;16.61;66.98
26531;BME280;14201;43.188;24.160;2023-05-12T08:55:26;100130.75;;;16.45;68.32
26531;BME280;14201;43.188;24.160;2023-05-12T08:57:52;100129.06;;;16.47;70.09
26531;BME280;14201;43.188;24.160;2023-05-12T09:00:18;100125.56;;;16.46;69.92
26531;BME280;14201;43.188;24.160;2023-05-12T09:02:44;100125.84;;;16.59;69.85
26531;BME280;14201;43.188;24.160;2023-05-12T09:05:11;100120.69;;;16.63;69.71
26531;BME280;14201;43.188;24.160;2023-05-12T09:07:41;100121.63;;;16.64;69.70
26531;BME280;14201;43.188;24.160;2023-05-12T09:10:07;100125.31;;;16.72;69.33
26531;BME280;14201;43.188;24.160;2023-05-12T09:12:36;100121.13;;;16.80;69.75
26531;BME280;14201;43.188;24.160;2023-05-12T09:15:05;100125.00;;;16.93;66.45
26531;BME280;14201;43.188;24.160;2023-05-12T09:17:34;100113.50;;;16.89;65.92
26531;BME280;14201;43.188;24.160;2023-05-12T09:20:00;100110.94;;;16.58;67.90
26531;BME280;14201;43.188;24.160;2023-05-12T09:22:30;100110.94;;;16.58;70.98
26531;BME280;14201;43.188;24.160;2023-05-12T09:24:57;100117.53;;;16.77;71.32
26531;BME280;14201;43.188;24.160;2023-05-12T09:27:26;100124.13;;;16.94;70.59
26531;BME280;14201;43.188;24.160;2023-05-12T09:29:52;100117.25;;;16.99;69.88
26531;BME280;14201;43.188;24.160;2023-05-12T09:32:17;100116.28;;;16.96;69.78
26531;BME280;14201;43.188;24.160;2023-05-12T09:34:53;100108.75;;;17.11;68.83
26531;BME280;14201;43.188;24.160;2023-05-12T09:37:19;100105.47;;;17.21;71.02
26531;BME280;14201;43.188;24.160;2023-05-12T09:39:44;100108.44;;;17.35;68.89
26531;BME280;14201;43.188;24.160;2023-05-12T09:42:11;100111.25;;;17.43;69.45
26531;BME280;14201;43.188;24.160;2023-05-12T09:44:37;100112.34;;;17.52;68.39
26531;BME280;14201;43.188;24.160;2023-05-12T09:47:06;100114.34;;;17.66;68.22
26531;BME280;14201;43.188;24.160;2023-05-12T09:49:31;100114.47;;;17.70;66.73
26531;BME280;14201;43.188;24.160;2023-05-12T09:51:57;100113.75;;;17.78;67.17
26531;BME280;14201;43.188;24.160;2023-05-12T09:54:26;100105.31;;;17.94;65.60
26531;BME280;14201;43.188;24.160;2023-05-12T09:56:53;100117.13;;;18.13;65.21
26531;BME280;14201;43.188;24.160;2023-05-12T09:59:21;100112.16;;;18.30;64.42
26531;BME280;14201;43.188;24.160;2023-05-12T10:01:50;100122.97;;;18.45;63.73
26531;BME280;14201;43.188;24.160;2023-05-12T10:04:17;100112.44;;;18.47;59.02
26531;BME280;14201;43.188;24.160;2023-05-12T10:06:43;100110.06;;;18.61;58.97
26531;BME280;14201;43.188;24.160;2023-05-12T10:09:24;100112.88;;;18.72;62.83
26531;BME280;14201;43.188;24.160;2023-05-12T10:11:52;100109.16;;;18.12;58.65
26531;BME280;14201;43.188;24.160;2023-05-12T10:14:17;100105.44;;;18.00;58.00
26531;BME280;14201;43.188;24.160;2023-05-12T10:16:46;100104.66;;;18.06;62.21
26531;BME280;14201;43.188;24.160;2023-05-12T10:19:12;100104.88;;;18.17;59.63
26531;BME280;14201;43.188;24.160;2023-05-12T10:21:38;100108.59;;;18.26;59.86
26531;BME280;14201;43.188;24.160;2023-05-12T10:24:03;100105.28;;;17.93;58.71
26531;BME280;14201;43.188;24.160;2023-05-12T10:26:32;100108.66;;;17.06;61.33
26531;BME280;14201;43.188;24.160;2023-05-12T10:28:59;100107.41;;;16.90;59.66
26531;BME280;14201;43.188;24.160;2023-05-12T10:31:26;100105.28;;;17.12;60.41
26531;BME280;14201;43.188;24.160;2023-05-12T10:33:55;100100.50;;;16.96;59.71
26531;BME280;14201;43.188;24.160;2023-05-12T10:36:21;100095.69;;;17.16;59.46
26531;BME280;14201;43.188;24.160;2023-05-12T10:38:47;100086.00;;;17.52;59.58
26531;BME280;14201;43.188;24.160;2023-05-12T10:41:16;100091.09;;;17.86;60.24
26531;BME280;14201;43.188;24.160;2023-05-12T10:43:42;100092.72;;;17.81;54.32
26531;BME280;14201;43.188;24.160;2023-05-12T10:46:19;100098.66;;;17.31;53.50
26531;BME280;14201;43.188;24.160;2023-05-12T10:49:09;100093.13;;;17.58;54.66
26531;BME280;14201;43.188;24.160;2023-05-12T10:51:45;100093.28;;;17.66;57.10
26531;BME280;14201;43.188;24.160;2023-05-12T10:54:17;100099.28;;;17.59;53.14
26531;BME280;14201;43.188;24.160;2023-05-12T10:56:43;100100.88;;;17.52;53.01
26531;BME280;14201;43.188;24.160;2023-05-12T10:59:24;100094.44;;;17.79;53.99
26531;BME280;14201;43.188;24.160;2023-05-12T11:01:57;100101.66;;;18.33;54.92
26531;BME280;14201;43.188;24.160;2023-05-12T11:04:34;100095.25;;;18.70;54.42
26531;BME280;14201;43.188;24.160;2023-05-12T11:07:00;100094.06;;;19.03;54.21
26531;BME280;14201;43.188;24.160;2023-05-12T11:09:25;100094.41;;;19.26;47.08
26531;BME280;14201;43.188;24.160;2023-05-12T11:11:51;100090.47;;;19.00;48.89
26531;BME280;14201;43.188;24.160;2023-05-12T11:14:16;100087.84;;;19.00;48.12
26531;BME280;14201;43.188;24.160;2023-05-12T11:16:43;100084.97;;;18.83;48.40
26531;BME280;14201;43.188;24.160;2023-05-12T11:19:08;100078.28;;;19.06;50.34
26531;BME280;14201;43.188;24.160;2023-05-12T11:21:34;100088.09;;;19.17;51.30
26531;BME280;14201;43.188;24.160;2023-05-12T11:24:00;100091.03;;;19.35;51.45
26531;BME280;14201;43.188;24.160;2023-05-12T11:26:29;100088.78;;;19.67;50.32
26531;BME280;14201;43.188;24.160;2023-05-12T11:28:57;100092.56;;;19.83;45.47
26531;BME280;14201;43.188;24.160;2023-05-12T11:31:23;100092.63;;;19.93;47.93
26531;BME280;14201;43.188;24.160;2023-05-12T11:33:49;100094.41;;;19.92;45.95
26531;BME280;14201;43.188;24.160;2023-05-12T11:36:15;100094.53;;;20.01;47.56
26531;BME280;14201;43.188;24.160;2023-05-12T11:38:48;100094.44;;;19.94;48.09
26531;BME280;14201;43.188;24.160;2023-05-12T11:41:20;100090.97;;;19.99;49.05
26531;BME280;14201;43.188;24.160;2023-05-12T11:43:45;100096.50;;;20.21;48.20
26531;BME280;14201;43.188;24.160;2023-05-12T11:46:10;100086.88;;;20.29;49.03
26531;BME280;14201;43.188;24.160;2023-05-12T11:48:36;100083.56;;;20.55;48.67
26531;BME280;14201;43.188;24.160;2023-05-12T11:51:01;100090.75;;;20.62;43.85
26531;BME280;14201;43.188;24.160;2023-05-12T11:53:27;100088.59;;;20.24;45.11
26531;BME280;14201;43.188;24.160;2023-05-12T11:55:53;100083.19;;;20.13;45.34
26531;BME280;14201;43.188;24.160;2023-05-12T11:58:20;100088.34;;;20.01;46.14
26531;BME280;14201;43.188;24.160;2023-05-12T12:00:46;100078.84;;;20.18;46.23
26531;BME280;14201;43.188;24.160;2023-05-12T12:03:13;100077.22;;;20.34;43.88
26531;BME280;14201;43.188;24.160;2023-05-12T12:05:39;100070.88;;;20.17;44.57
26531;BME280;14201;43.188;24.160;2023-05-12T12:08:06;100069.22;;;20.30;45.40
26531;BME280;14201;43.188;24.160;2023-05-12T12:10:33;100070.34;;;20.55;46.60
26531;BME280;14201;43.188;24.160;2023-05-12T12:12:59;100071.41;;;20.69;44.32
26531;BME280;14201;43.188;24.160;2023-05-12T12:15:25;100075.94;;;20.84;43.59
26531;BME280;14201;43.188;24.160;2023-05-12T12:17:50;100072.38;;;20.83;44.63
26531;BME280;14201;43.188;24.160;2023-05-12T12:20:16;100077.72;;;20.87;44.96
26531;BME280;14201;43.188;24.160;2023-05-12T12:22:42;100072.50;;;20.99;43.74
26531;BME280;14201;43.188;24.160;2023-05-12T12:25:08;100071.59;;;20.98;46.22
26531;BME280;14201;43.188;24.160;2023-05-12T12:27:34;100068.94;;;20.94;46.67
26531;BME280;14201;43.188;24.160;2023-05-12T12:29:59;100070.88;;;20.17;47.92
26531;BME280;14201;43.188;24.160;2023-05-12T12:32:24;100074.72;;;20.53;48.01
26531;BME280;14201;43.188;24.160;2023-05-12T12:34:50;100071.34;;;20.64;47.69
26531;BME280;14201;43.188;24.160;2023-05-12T12:37:16;100071.38;;;20.68;46.33
26531;BME280;14201;43.188;24.160;2023-05-12T12:39:41;100070.44;;;20.62;46.03